Time;durP1;ratioP1;P1;durP2;ratioP2;P2;SDS_P1;SDS_P2;PMS_P1;PMS_P2;Temp;Humidity;BMP_temperature;BMP_pressure;BME280_temperature;BME280_humidity;BME280_pressure;Samples;Min_cycle;Max_cycle;Signal;HPM_P1;HPM_P2
2021/09/06 00:02:14;;;;;;;25.20;23.00;;;16.10;99.90;;;;;;5053746;28;20452;-61
2021/09/06 00:04:41;;;;;;;25.37;23.07;;;16.00;99.90;;;;;;5053925;28;20447;-61
2021/09/06 00:07:08;;;;;;;24.33;22.03;;;15.90;99.90;;;;;;5053914;28;20463;-61
2021/09/06 00:09:36;;;;;;;24.33;22.23;;;15.90;99.90;;;;;;5049769;28;20480;-62
2021/09/06 00:12:03;;;;;;;25.30;22.80;;;15.90;99.90;;;;;;5053914;28;20474;-62
2021/09/06 00:14:30;;;;;;;25.73;23.30;;;15.90;99.90;;;;;;5044964;28;20503;-61
2021/09/06 00:16:57;;;;;;;23.50;21.20;;;15.90;99.90;;;;;;5034009;28;20865;-60
2021/09/06 00:19:24;;;;;;;24.40;22.10;;;15.80;99.90;;;;;;5034098;28;20792;-62
2021/09/06 00:21:51;;;;;;;22.57;20.30;;;15.80;99.90;;;;;;5047045;28;20452;-62
2021/09/06 00:24:17;;;;;;;24.53;22.03;;;15.80;99.90;;;;;;5043616;28;20452;-62
2021/09/06 00:26:45;;;;;;;22.47;20.30;;;15.70;99.90;;;;;;5053754;28;20460;-60
2021/09/06 00:29:12;;;;;;;22.00;19.20;;;15.70;99.90;;;;;;5043937;28;20480;-62
2021/09/06 00:31:39;;;;;;;23.80;21.50;;;15.70;99.90;;;;;;5053550;28;20448;-59
2021/09/06 00:34:05;;;;;;;23.10;20.77;;;15.70;99.90;;;;;;5051388;28;20949;-59
2021/09/06 00:36:32;;;;;;;25.83;23.13;;;15.60;99.90;;;;;;5033575;28;20452;-61
2021/09/06 00:38:59;;;;;;;23.00;20.90;;;15.60;99.90;;;;;;5053720;28;20479;-62
2021/09/06 00:41:26;;;;;;;23.00;20.80;;;15.50;99.90;;;;;;5052806;28;20461;-61
2021/09/06 00:43:55;;;;;;;23.63;21.33;;;15.50;99.90;;;;;;5053675;28;20451;-60
2021/09/06 00:46:23;;;;;;;23.67;21.17;;;15.50;99.90;;;;;;5047822;28;20445;-60
2021/09/06 00:48:50;;;;;;;25.73;23.27;;;15.50;99.90;;;;;;5036874;28;20488;-60
2021/09/06 00:51:17;;;;;;;25.60;21.37;;;15.50;99.90;;;;;;5049327;28;20503;-61
2021/09/06 00:53:44;;;;;;;23.27;20.27;;;15.50;99.90;;;;;;5035974;28;20867;-61
2021/09/06 00:56:11;;;;;;;26.63;23.30;;;15.50;99.90;;;;;;5051599;28;20455;-59
2021/09/06 00:58:38;;;;;;;22.93;20.53;;;15.50;99.90;;;;;;5051010;28;20468;-61
2021/09/06 01:01:06;;;;;;;21.10;18.87;;;15.50;99.90;;;;;;5039993;28;20453;-59
2021/09/06 01:03:32;;;;;;;21.73;19.47;;;15.50;99.90;;;;;;5052869;28;20471;-62
2021/09/06 01:05:59;;;;;;;23.20;19.37;;;15.40;99.90;;;;;;5046104;28;20453;-60
2021/09/06 01:08:27;;;;;;;21.00;18.87;;;15.40;99.90;;;;;;5033013;28;20496;-61
2021/09/06 01:10:54;;;;;;;22.10;19.90;;;15.40;99.90;;;;;;5033161;28;20860;-60
2021/09/06 01:13:21;;;;;;;24.40;19.60;;;15.40;99.90;;;;;;5039538;28;20842;-60
2021/09/06 01:15:47;;;;;;;21.03;19.07;;;15.30;99.90;;;;;;5033118;28;20453;-61
2021/09/06 01:18:16;;;;;;;24.03;20.10;;;15.30;99.90;;;;;;5037525;28;20463;-60
2021/09/06 01:20:42;;;;;;;22.57;20.27;;;15.30;99.90;;;;;;5041367;28;20441;-62
2021/09/06 01:23:10;;;;;;;24.07;20.80;;;15.30;99.90;;;;;;5034466;28;20445;-61
2021/09/06 01:25:37;;;;;;;27.60;21.30;;;15.20;99.90;;;;;;5052515;28;20476;-62
2021/09/06 01:28:05;;;;;;;29.53;17.70;;;15.20;99.90;;;;;;5034393;28;21173;-61
2021/09/06 01:30:32;;;;;;;21.40;19.20;;;15.20;99.90;;;;;;5050331;28;20456;-61
2021/09/06 01:32:59;;;;;;;23.53;18.47;;;15.20;99.90;;;;;;5045058;28;20449;-61
2021/09/06 01:35:26;;;;;;;23.70;19.57;;;15.20;99.90;;;;;;5046061;28;21009;-59
2021/09/06 01:37:52;;;;;;;21.50;18.90;;;15.20;99.90;;;;;;5051110;28;20473;-60
2021/09/06 01:40:20;;;;;;;24.33;19.33;;;15.20;99.90;;;;;;5039892;28;20445;-60
2021/09/06 01:42:47;;;;;;;21.40;18.97;;;15.20;99.90;;;;;;5032294;28;20484;-62
2021/09/06 01:45:15;;;;;;;20.73;18.53;;;15.20;99.90;;;;;;5047589;28;20449;-62
2021/09/06 01:47:41;;;;;;;19.63;17.13;;;15.20;99.90;;;;;;5050728;28;20464;-60
2021/09/06 01:50:09;;;;;;;20.83;18.50;;;15.10;99.90;;;;;;5049968;28;20483;-60
2021/09/06 01:52:36;;;;;;;23.80;20.30;;;15.10;99.90;;;;;;5051831;28;20535;-62
2021/09/06 01:55:04;;;;;;;21.80;18.40;;;15.10;99.90;;;;;;5038262;28;20453;-60
2021/09/06 01:57:30;;;;;;;19.60;17.50;;;15.00;99.90;;;;;;5032293;28;20468;-60
2021/09/06 01:59:57;;;;;;;26.50;18.63;;;15.00;99.90;;;;;;5046751;28;20444;-61
2021/09/06 02:02:25;;;;;;;26.07;20.10;;;15.00;99.90;;;;;;5050571;28;20444;-61
2021/09/06 02:04:52;;;;;;;27.60;20.40;;;14.90;99.90;;;;;;5031915;28;20453;-60
2021/09/06 02:07:19;;;;;;;22.10;19.70;;;14.90;99.90;;;;;;5032005;28;20476;-61
2021/09/06 02:09:46;;;;;;;22.30;20.00;;;14.80;99.90;;;;;;5031893;28;20507;-60
2021/09/06 02:12:12;;;;;;;22.10;20.00;;;14.80;99.90;;;;;;5031994;28;20452;-60
2021/09/06 02:14:39;;;;;;;20.97;18.07;;;14.80;99.90;;;;;;5031455;28;20445;-60
2021/09/06 02:17:06;;;;;;;20.80;17.87;;;14.80;99.90;;;;;;5031520;28;20472;-60
2021/09/06 02:19:34;;;;;;;20.40;18.20;;;14.70;99.90;;;;;;5031717;28;20919;-60
2021/09/06 02:22:01;;;;;;;26.73;20.37;;;14.70;99.90;;;;;;5031688;28;20448;-62
2021/09/06 02:24:28;;;;;;;24.00;19.43;;;14.70;99.90;;;;;;5031729;28;20441;-60
2021/09/06 02:26:55;;;;;;;22.13;17.73;;;14.60;99.90;;;;;;5031804;28;20817;-60
2021/09/06 02:29:22;;;;;;;19.57;17.47;;;14.60;99.90;;;;;;5031554;28;20441;-62
2021/09/06 02:31:48;;;;;;;20.40;17.90;;;14.60;99.90;;;;;;5030952;28;20457;-62
2021/09/06 02:34:15;;;;;;;19.30;17.30;;;14.60;99.90;;;;;;5031641;28;20449;-63
2021/09/06 02:36:43;;;;;;;19.93;17.47;;;14.60;99.90;;;;;;5031529;28;20507;-62
2021/09/06 02:39:10;;;;;;;23.37;18.83;;;14.70;99.90;;;;;;5032769;28;20481;-62
2021/09/06 02:41:37;;;;;;;22.77;18.10;;;14.70;99.90;;;;;;5031532;28;20445;-62
2021/09/06 02:44:04;;;;;;;21.43;17.73;;;14.70;99.90;;;;;;5036943;28;20451;-61
2021/09/06 02:46:30;;;;;;;25.60;18.73;;;14.70;99.90;;;;;;5042297;28;20449;-62
2021/09/06 02:48:57;;;;;;;20.27;17.90;;;14.60;99.90;;;;;;5031498;28;20472;-61
2021/09/06 02:51:24;;;;;;;20.60;18.40;;;14.70;99.90;;;;;;5031467;28;20460;-60
2021/09/06 02:53:52;;;;;;;22.50;19.17;;;14.60;99.90;;;;;;5035243;28;20452;-62
2021/09/06 02:56:18;;;;;;;19.60;17.37;;;14.60;99.90;;;;;;5051301;28;20451;-62
2021/09/06 02:58:45;;;;;;;20.80;18.50;;;14.60;99.90;;;;;;5047904;28;21108;-61
2021/09/06 03:01:12;;;;;;;22.43;17.27;;;14.50;99.90;;;;;;5043460;28;20452;-62
2021/09/06 03:03:38;;;;;;;20.40;17.50;;;14.50;99.90;;;;;;5048887;28;20455;-60
2021/09/06 03:06:05;;;;;;;25.93;19.13;;;14.50;99.90;;;;;;5031541;28;20449;-60
2021/09/06 03:08:32;;;;;;;21.60;18.07;;;14.40;99.90;;;;;;5032615;28;20480;-61
2021/09/06 03:11:01;;;;;;;20.20;16.90;;;14.50;99.90;;;;;;5051312;28;20443;-61
2021/09/06 03:13:28;;;;;;;24.97;20.10;;;14.40;99.90;;;;;;5050919;28;20825;-61
2021/09/06 03:15:55;;;;;;;25.20;18.07;;;14.40;99.90;;;;;;5035666;28;20453;-60
2021/09/06 03:18:22;;;;;;;24.53;18.83;;;14.30;99.90;;;;;;5031186;28;20482;-61
2021/09/06 03:20:48;;;;;;;27.30;18.43;;;14.30;99.90;;;;;;5032252;28;20456;-61
2021/09/06 03:23:15;;;;;;;19.23;16.73;;;14.20;99.90;;;;;;5030924;28;20452;-61
2021/09/06 03:25:42;;;;;;;24.63;17.03;;;14.20;99.90;;;;;;5050095;28;20457;-60
2021/09/06 03:28:10;;;;;;;21.10;18.50;;;14.20;99.90;;;;;;5033624;28;20472;-61
2021/09/06 03:30:36;;;;;;;22.07;18.10;;;14.20;99.90;;;;;;5049959;28;20440;-61
2021/09/06 03:33:03;;;;;;;21.57;18.50;;;14.20;99.90;;;;;;5050615;28;20913;-61
2021/09/06 03:35:30;;;;;;;24.30;16.63;;;14.10;99.90;;;;;;5033284;28;20457;-62
2021/09/06 03:37:56;;;;;;;25.17;20.23;;;14.10;99.90;;;;;;5035076;28;20460;-60
2021/09/06 03:40:23;;;;;;;24.43;17.83;;;14.10;99.90;;;;;;5051050;28;20845;-61
2021/09/06 03:42:50;;;;;;;20.37;17.30;;;14.00;99.90;;;;;;5049695;28;20448;-62
2021/09/06 03:45:18;;;;;;;20.27;16.20;;;14.00;99.90;;;;;;5043236;28;20440;-60
2021/09/06 03:47:45;;;;;;;22.63;17.37;;;13.90;99.90;;;;;;5054671;28;20472;-60
2021/09/06 03:50:11;;;;;;;24.83;19.03;;;13.90;99.90;;;;;;5038970;28;20966;-60
2021/09/06 03:52:38;;;;;;;28.00;18.80;;;13.90;99.90;;;;;;5034572;28;20865;-61
2021/09/06 03:55:06;;;;;;;20.67;17.07;;;13.90;99.90;;;;;;5048392;28;20474;-60
2021/09/06 03:57:32;;;;;;;20.13;16.57;;;13.90;99.90;;;;;;5044408;28;20824;-61
2021/09/06 03:59:59;;;;;;;24.37;17.13;;;13.80;99.90;;;;;;5040772;28;20484;-61
2021/09/06 04:02:27;;;;;;;24.90;17.60;;;13.80;99.90;;;;;;5034253;28;20457;-61
2021/09/06 04:04:55;;;;;;;23.10;17.63;;;13.80;99.90;;;;;;5034342;28;20963;-62
2021/09/06 04:07:21;;;;;;;25.83;17.83;;;13.80;99.90;;;;;;5034301;28;20508;-61
2021/09/06 04:09:48;;;;;;;21.17;17.00;;;13.70;99.90;;;;;;5048160;28;20939;-59
2021/09/06 04:12:15;;;;;;;21.13;16.77;;;13.80;99.90;;;;;;5045396;28;20460;-59
2021/09/06 04:14:41;;;;;;;21.50;16.10;;;13.80;99.90;;;;;;5034304;28;20444;-60
2021/09/06 04:17:08;;;;;;;25.90;16.63;;;13.70;99.90;;;;;;5034004;28;21036;-59
2021/09/06 04:19:37;;;;;;;22.97;17.07;;;13.70;99.90;;;;;;5042259;28;20487;-60
2021/09/06 04:22:04;;;;;;;21.17;17.17;;;13.70;99.90;;;;;;5040863;28;20446;-59
2021/09/06 04:24:31;;;;;;;23.63;18.30;;;13.70;99.90;;;;;;5053171;28;20453;-60
2021/09/06 04:26:59;;;;;;;30.03;20.43;;;13.70;99.90;;;;;;5041825;28;20830;-58
2021/09/06 04:29:26;;;;;;;21.87;16.70;;;13.70;99.90;;;;;;5034869;28;20441;-57
2021/09/06 04:31:54;;;;;;;20.50;17.33;;;13.70;99.90;;;;;;5034100;28;20575;-56
2021/09/06 04:34:20;;;;;;;21.33;17.53;;;13.70;99.90;;;;;;5042901;28;20980;-58
2021/09/06 04:36:48;;;;;;;25.43;18.93;;;13.60;99.90;;;;;;5045771;28;20460;-56
2021/09/06 04:39:15;;;;;;;26.33;18.00;;;13.60;99.90;;;;;;5033662;28;20519;-56
2021/09/06 04:41:42;;;;;;;33.67;18.90;;;13.60;99.90;;;;;;5033336;28;20458;-56
2021/09/06 04:44:09;;;;;;;23.80;18.53;;;13.60;99.90;;;;;;5033676;28;20456;-55
2021/09/06 04:46:35;;;;;;;24.23;18.87;;;13.60;99.90;;;;;;5033634;28;20461;-55
2021/09/06 04:49:02;;;;;;;27.70;19.23;;;13.60;99.90;;;;;;5033500;28;20465;-57
2021/09/06 04:51:29;;;;;;;26.30;22.70;;;13.50;99.90;;;;;;5033277;28;20937;-56
2021/09/06 04:53:57;;;;;;;30.13;19.80;;;13.60;99.90;;;;;;5033480;28;20452;-56
2021/09/06 04:56:24;;;;;;;25.83;18.87;;;13.60;99.90;;;;;;5033478;28;20453;-57
2021/09/06 04:58:51;;;;;;;28.87;19.70;;;13.60;99.90;;;;;;5033156;28;20469;-57
2021/09/06 05:01:18;;;;;;;26.23;18.80;;;13.60;99.90;;;;;;5033211;28;20864;-55
2021/09/06 05:03:45;;;;;;;26.00;16.50;;;13.60;99.90;;;;;;5033201;28;20445;-58
2021/09/06 05:06:11;;;;;;;27.97;17.50;;;13.60;99.90;;;;;;5033204;28;20450;-55
2021/09/06 05:08:38;;;;;;;28.57;20.77;;;13.60;99.90;;;;;;5033027;28;20473;-60
2021/09/06 05:11:06;;;;;;;24.77;18.67;;;13.70;99.90;;;;;;5033018;28;20437;-58
2021/09/06 05:13:33;;;;;;;28.57;19.10;;;13.60;99.90;;;;;;5032983;28;20476;-60
2021/09/06 05:15:59;;;;;;;23.57;18.77;;;13.70;99.90;;;;;;5033077;28;20804;-58
2021/09/06 05:18:26;;;;;;;23.43;18.87;;;13.70;99.90;;;;;;5032909;28;20476;-59
2021/09/06 05:20:54;;;;;;;30.30;20.23;;;13.70;99.90;;;;;;5032878;28;20484;-55
2021/09/06 05:23:20;;;;;;;25.17;16.50;;;13.80;99.90;;;;;;5032694;28;20981;-55
2021/09/06 05:25:47;;;;;;;24.03;19.60;;;13.80;99.90;;;;;;5032806;28;21111;-56
2021/09/06 05:28:15;;;;;;;29.03;20.07;;;13.80;99.90;;;;;;5032731;28;21040;-57
2021/09/06 05:30:42;;;;;;;31.70;20.60;;;13.90;99.90;;;;;;5032693;28;20445;-60
2021/09/06 05:33:09;;;;;;;21.63;17.00;;;13.90;99.90;;;;;;5032505;28;20453;-60
2021/09/06 05:35:35;;;;;;;24.63;18.10;;;13.90;99.90;;;;;;5032480;28;20460;-59
2021/09/06 05:38:02;;;;;;;24.93;19.00;;;14.00;99.90;;;;;;5032690;28;20469;-59
2021/09/06 05:40:29;;;;;;;26.13;17.80;;;14.10;99.90;;;;;;5032423;28;20477;-59
2021/09/06 05:42:56;;;;;;;25.93;19.87;;;14.10;99.90;;;;;;5032427;28;20449;-58
2021/09/06 05:45:24;;;;;;;24.70;17.53;;;14.20;99.90;;;;;;5032489;28;20492;-60
2021/09/06 05:47:51;;;;;;;33.77;20.63;;;14.20;99.90;;;;;;5032226;28;20469;-56
2021/09/06 05:50:18;;;;;;;25.90;19.90;;;14.30;99.90;;;;;;5032410;28;20441;-60
2021/09/06 05:52:45;;;;;;;27.03;19.17;;;14.30;99.90;;;;;;5032269;28;20456;-60
2021/09/06 05:55:13;;;;;;;21.57;17.10;;;14.40;99.90;;;;;;5032352;28;20444;-60
2021/09/06 05:57:39;;;;;;;24.17;17.83;;;14.50;99.90;;;;;;5032231;28;20472;-57
2021/09/06 06:00:08;;;;;;;28.20;19.10;;;14.50;99.90;;;;;;5032177;28;20491;-60
2021/09/06 06:02:37;;;;;;;26.20;18.40;;;14.60;99.90;;;;;;5031985;28;20804;-58
2021/09/06 06:05:04;;;;;;;23.57;17.90;;;14.70;99.90;;;;;;5032193;28;20454;-60
2021/09/06 06:07:31;;;;;;;24.70;18.37;;;14.80;99.90;;;;;;5031923;28;20476;-58
2021/09/06 06:09:57;;;;;;;23.73;19.70;;;14.80;99.90;;;;;;5032097;28;20445;-62
2021/09/06 06:12:27;;;;;;;25.10;20.57;;;14.90;99.90;;;;;;5031838;28;20444;-60
2021/09/06 06:14:54;;;;;;;23.17;18.63;;;15.00;99.90;;;;;;5032025;28;20461;-60
2021/09/06 06:17:20;;;;;;;23.20;18.17;;;15.10;99.90;;;;;;5031913;28;20823;-60
2021/09/06 06:19:48;;;;;;;26.47;21.97;;;15.10;99.90;;;;;;5031921;28;20495;-60
2021/09/06 06:22:15;;;;;;;25.53;19.87;;;15.20;99.90;;;;;;5031733;28;20468;-60
2021/09/06 06:24:42;;;;;;;26.40;19.77;;;15.40;99.90;;;;;;5031988;28;20472;-60
2021/09/06 06:27:09;;;;;;;26.23;19.93;;;15.40;99.90;;;;;;5031761;28;20468;-60
2021/09/06 06:29:35;;;;;;;21.93;17.17;;;15.50;99.90;;;;;;5031765;28;20452;-60
2021/09/06 06:32:02;;;;;;;22.90;19.87;;;15.60;99.90;;;;;;5031599;28;20452;-60
2021/09/06 06:34:29;;;;;;;23.00;20.10;;;15.80;99.90;;;;;;5031584;28;20456;-60
2021/09/06 06:36:57;;;;;;;21.40;19.20;;;15.80;99.90;;;;;;5031688;28;20456;-60
2021/09/06 06:39:24;;;;;;;25.50;18.90;;;16.00;99.90;;;;;;5031861;28;20484;-60
2021/09/06 06:41:51;;;;;;;22.60;20.20;;;16.10;99.90;;;;;;5031334;28;20930;-60
2021/09/06 06:44:17;;;;;;;24.63;20.60;;;16.30;99.90;;;;;;5031646;28;20449;-60
2021/09/06 06:46:44;;;;;;;26.23;22.43;;;16.40;99.90;;;;;;5031712;28;20448;-58
2021/09/06 06:49:11;;;;;;;23.20;19.90;;;16.50;99.90;;;;;;5031795;28;20961;-59
2021/09/06 06:51:38;;;;;;;23.00;20.60;;;16.60;99.90;;;;;;5031299;28;20452;-60
2021/09/06 06:54:06;;;;;;;24.43;20.87;;;16.70;99.90;;;;;;5031643;28;20982;-59
2021/09/06 06:56:33;;;;;;;22.23;19.90;;;16.80;99.90;;;;;;5031623;28;20448;-59
2021/09/06 06:58:59;;;;;;;22.53;20.13;;;16.90;99.90;;;;;;5031530;28;20472;-60
2021/09/06 07:01:26;;;;;;;25.73;23.00;;;17.00;99.90;;;;;;5031255;28;20492;-60
2021/09/06 07:03:53;;;;;;;25.40;22.73;;;17.10;99.90;;;;;;5031501;28;20449;-57
2021/09/06 07:06:20;;;;;;;25.60;22.20;;;17.20;99.90;;;;;;5031563;28;20441;-60
2021/09/06 07:08:46;;;;;;;25.83;23.20;;;17.30;99.90;;;;;;5031319;28;20477;-55
2021/09/06 07:11:14;;;;;;;21.87;19.63;;;17.40;99.90;;;;;;5031406;28;20448;-58
2021/09/06 07:13:41;;;;;;;25.43;22.70;;;17.50;99.90;;;;;;5031393;28;20449;-61
2021/09/06 07:16:08;;;;;;;25.93;21.50;;;17.60;99.90;;;;;;5031526;28;20448;-60
2021/09/06 07:18:34;;;;;;;25.97;21.90;;;17.70;99.90;;;;;;5033280;28;20472;-61
2021/09/06 07:21:01;;;;;;;23.57;21.17;;;17.80;99.90;;;;;;5035055;28;20885;-61
2021/09/06 07:23:28;;;;;;;22.97;20.57;;;17.90;99.90;;;;;;5034903;28;20444;-58
2021/09/06 07:25:55;;;;;;;25.13;22.50;;;18.00;99.90;;;;;;5035124;28;20452;-59
2021/09/06 07:28:23;;;;;;;24.47;21.87;;;18.10;99.90;;;;;;5035012;28;20465;-61
2021/09/06 07:30:49;;;;;;;24.33;21.80;;;18.20;99.90;;;;;;5034930;28;20808;-60
2021/09/06 07:33:16;;;;;;;25.67;23.07;;;18.30;99.90;;;;;;5034943;28;20453;-60
2021/09/06 07:35:43;;;;;;;23.43;21.07;;;18.40;99.90;;;;;;5034809;28;21055;-60
2021/09/06 07:38:09;;;;;;;23.27;20.80;;;18.50;99.90;;;;;;5035026;28;20947;-59
2021/09/06 07:40:36;;;;;;;24.30;21.80;;;18.50;99.90;;;;;;5034832;28;20488;-61
2021/09/06 07:43:03;;;;;;;25.63;23.13;;;18.60;99.90;;;;;;5034827;28;20453;-61
2021/09/06 07:45:31;;;;;;;25.93;22.97;;;18.70;99.90;;;;;;5034973;28;20863;-61
2021/09/06 07:47:57;;;;;;;25.20;22.60;;;18.80;99.90;;;;;;5034705;28;20465;-61
2021/09/06 07:50:24;;;;;;;25.37;22.70;;;18.80;99.90;;;;;;5034835;28;20919;-60
2021/09/06 07:52:51;;;;;;;24.80;22.40;;;18.90;99.90;;;;;;5034526;28;20449;-61
2021/09/06 07:55:17;;;;;;;30.27;22.93;;;19.00;99.90;;;;;;5034623;28;20445;-59
2021/09/06 07:57:44;;;;;;;24.43;22.10;;;19.00;99.90;;;;;;5034632;28;20472;-61
2021/09/06 08:00:12;;;;;;;25.60;23.30;;;19.10;99.90;;;;;;5034314;28;20480;-61
2021/09/06 08:02:48;;;;;;;25.93;23.40;;;19.20;99.90;;;;;;5034485;28;20449;-61
2021/09/06 08:05:17;;;;;;;27.27;24.70;;;19.30;99.90;;;;;;5034553;28;20837;-62
2021/09/06 08:07:44;;;;;;;27.07;24.67;;;19.40;99.90;;;;;;5034246;28;20465;-61
2021/09/06 08:10:11;;;;;;;28.37;25.83;;;19.50;99.90;;;;;;5034268;28;20456;-60
2021/09/06 08:12:38;;;;;;;24.93;23.00;;;19.50;99.90;;;;;;5034050;28;20440;-61
2021/09/06 08:15:06;;;;;;;28.47;25.57;;;19.60;99.90;;;;;;5034352;28;20468;-64
2021/09/06 08:17:34;;;;;;;26.73;24.20;;;19.70;99.90;;;;;;5034883;28;20465;-64
2021/09/06 08:20:02;;;;;;;29.00;25.93;;;19.80;99.90;;;;;;5034519;28;20518;-63
2021/09/06 08:22:29;;;;;;;30.40;27.53;;;19.90;99.90;;;;;;5034217;28;20822;-62
2021/09/06 08:24:55;;;;;;;29.10;26.60;;;20.10;99.90;;;;;;5034566;28;20866;-64
2021/09/06 08:27:22;;;;;;;29.00;26.40;;;20.20;99.90;;;;;;5034866;28;20476;-64
2021/09/06 08:29:49;;;;;;;28.63;26.00;;;20.30;99.90;;;;;;5034151;28;20510;-63
2021/09/06 08:32:16;;;;;;;30.17;27.50;;;20.50;99.90;;;;;;5034258;28;20445;-64
2021/09/06 08:34:42;;;;;;;29.73;27.13;;;20.60;99.90;;;;;;5034542;28;20448;-64
2021/09/06 08:37:10;;;;;;;30.27;27.70;;;20.70;99.90;;;;;;5034616;28;20487;-62
2021/09/06 08:39:38;;;;;;;30.97;28.03;;;20.80;99.90;;;;;;5034867;28;20842;-64
2021/09/06 08:42:05;;;;;;;30.37;27.97;;;20.90;99.90;;;;;;5034977;28;20480;-64
2021/09/06 08:44:31;;;;;;;30.73;28.10;;;21.00;99.90;;;;;;5034361;28;20449;-64
2021/09/06 08:46:59;;;;;;;30.60;27.87;;;21.10;99.90;;;;;;5034766;28;20445;-62
2021/09/06 08:49:26;;;;;;;32.47;29.90;;;21.10;99.90;;;;;;5035678;28;20460;-63
2021/09/06 08:51:52;;;;;;;31.20;28.47;;;21.10;99.90;;;;;;5035604;28;20437;-64
2021/09/06 08:54:20;;;;;;;27.20;25.00;;;21.30;99.90;;;;;;5036442;28;20449;-63
2021/09/06 08:56:48;;;;;;;31.50;28.90;;;21.20;99.90;;;;;;5036096;28;20456;-63
2021/09/06 08:59:17;;;;;;;29.97;27.60;;;21.40;99.90;;;;;;5034966;28;20445;-64
2021/09/06 09:01:48;;;;;;;30.93;28.10;;;21.60;99.90;;;;;;5034232;28;20476;-63
2021/09/06 09:04:19;;;;;;;30.13;27.83;;;21.70;99.90;;;;;;5034115;28;20448;-62
2021/09/06 09:06:48;;;;;;;30.63;28.23;;;21.90;99.90;;;;;;5033551;28;20452;-64
2021/09/06 09:09:23;;;;;;;29.07;26.87;;;21.90;99.90;;;;;;5034852;28;20486;-63
2021/09/06 09:12:12;;;;;;;31.80;28.63;;;22.00;99.90;;;;;;5034134;28;20519;-63
2021/09/06 09:14:41;;;;;;;31.63;28.83;;;22.20;99.90;;;;;;5034388;28;20460;-63
2021/09/06 09:17:08;;;;;;;31.10;28.70;;;22.30;99.90;;;;;;5034140;28;20472;-62
2021/09/06 09:19:36;;;;;;;32.00;29.30;;;22.50;99.90;;;;;;5033479;28;20815;-63
2021/09/06 09:22:04;;;;;;;31.63;29.03;;;22.60;99.90;;;;;;5033358;28;20831;-64
2021/09/06 09:24:36;;;;;;;32.50;29.90;;;22.60;99.90;;;;;;5033717;28;20453;-62
2021/09/06 09:27:05;;;;;;;29.87;27.73;;;22.60;99.90;;;;;;5034098;28;20484;-64
2021/09/06 09:29:32;;;;;;;30.63;28.07;;;22.60;99.90;;;;;;5034389;28;20448;-63
2021/09/06 09:32:05;;;;;;;27.37;25.40;;;22.80;99.90;;;;;;5033761;28;20448;-63
2021/09/06 09:34:32;;;;;;;29.70;27.40;;;23.00;99.90;;;;;;5033834;28;20449;-62
2021/09/06 09:37:00;;;;;;;28.73;26.60;;;23.10;99.90;;;;;;5034057;28;20452;-64
2021/09/06 09:39:27;;;;;;;30.60;28.03;;;23.30;99.90;;;;;;5034365;28;20457;-64
2021/09/06 09:42:06;;;;;;;30.20;27.60;;;23.30;99.90;;;;;;5032816;28;20492;-63
2021/09/06 09:44:43;;;;;;;31.07;28.47;;;23.40;99.90;;;;;;5033929;28;20436;-64
2021/09/06 09:47:09;;;;;;;30.93;28.33;;;23.60;99.90;;;;;;5033397;28;20468;-62
2021/09/06 09:49:37;;;;;;;30.97;28.57;;;23.80;99.90;;;;;;5033537;28;20456;-64
2021/09/06 09:52:05;;;;;;;32.37;30.00;;;23.70;99.90;;;;;;5033494;28;20955;-64
2021/09/06 09:54:32;;;;;;;32.37;29.97;;;23.80;99.90;;;;;;5033200;28;20456;-62
2021/09/06 09:57:00;;;;;;;29.90;27.60;;;24.00;99.90;;;;;;5033360;28;20445;-63
2021/09/06 09:59:27;;;;;;;28.87;26.57;;;24.20;99.90;;;;;;5033242;28;20767;-61
2021/09/06 10:02:00;;;;;;;32.80;30.30;;;24.20;99.90;;;;;;5032351;28;20484;-63
2021/09/06 10:04:31;;;;;;;31.83;29.33;;;24.50;99.90;;;;;;5032901;28;20522;-63
2021/09/06 10:06:59;;;;;;;33.03;30.67;;;24.50;99.90;;;;;;5032629;28;20445;-63
2021/09/06 10:09:26;;;;;;;32.47;29.97;;;24.70;99.90;;;;;;5076120;22;20823;-64
2021/09/06 10:11:52;;;;;;;32.00;29.67;;;24.80;99.90;;;;;;5066355;28;20439;-63
2021/09/06 10:14:22;;;;;;;34.10;31.47;;;25.10;99.90;;;;;;5061318;28;20535;-63
2021/09/06 10:17:00;;;;;;;33.57;31.13;;;25.10;99.90;;;;;;5051634;28;20436;-63
2021/09/06 10:19:38;;;;;;;32.33;29.93;;;25.40;99.90;;;;;;5065237;28;20462;-63
2021/09/06 10:22:05;;;;;;;35.70;33.10;;;25.50;99.90;;;;;;5067977;28;20979;-63
2021/09/06 10:24:32;;;;;;;36.40;33.50;;;25.80;99.90;;;;;;5071870;28;20447;-65
2021/09/06 10:27:04;;;;;;;34.63;31.87;;;26.10;99.60;;;;;;5071694;28;20812;-61
2021/09/06 10:29:32;;;;;;;34.57;31.87;;;26.40;98.40;;;;;;5071567;28;20460;-61
2021/09/06 10:32:01;;;;;;;35.63;32.90;;;26.60;97.20;;;;;;5071451;28;20439;-63
2021/09/06 10:34:29;;;;;;;33.60;31.23;;;26.70;96.20;;;;;;5071940;28;20442;-63
2021/09/06 10:37:01;;;;;;;34.90;32.30;;;26.90;94.80;;;;;;5071609;28;20916;-63
2021/09/06 10:39:28;;;;;;;34.70;32.20;;;27.10;93.00;;;;;;5071490;28;20940;-63
2021/09/06 10:42:02;;;;;;;31.73;29.30;;;27.30;92.80;;;;;;5071374;28;20572;-64
2021/09/06 10:44:37;;;;;;;30.13;27.73;;;27.50;91.00;;;;;;5071658;28;20466;-64
2021/09/06 10:47:10;;;;;;;33.00;30.50;;;27.10;81.20;;;;;;5071536;28;20469;-62
2021/09/06 10:49:41;;;;;;;33.97;31.67;;;27.10;77.60;;;;;;5071280;28;20458;-67
2021/09/06 10:52:09;;;;;;;30.43;28.27;;;27.40;84.50;;;;;;5072486;28;20443;-61
2021/09/06 10:54:39;;;;;;;28.37;26.60;;;27.80;77.40;;;;;;5075633;28;20450;-63
2021/09/06 10:57:07;;;;;;;29.23;27.33;;;27.90;68.10;;;;;;5075660;28;20483;-65
2021/09/06 10:59:34;;;;;;;31.30;29.00;;;28.20;67.00;;;;;;5075401;28;20459;-61
2021/09/06 11:02:06;;;;;;;28.37;26.77;;;28.70;63.70;;;;;;5075126;28;20891;-66
2021/09/06 11:04:34;;;;;;;29.13;27.43;;;28.90;62.00;;;;;;5075370;28;20450;-62
2021/09/06 11:07:03;;;;;;;29.67;27.87;;;29.30;60.70;;;;;;5075456;28;20442;-61
2021/09/06 11:09:31;;;;;;;27.47;25.77;;;29.90;58.60;;;;;;5075152;28;20551;-63
2021/09/06 11:12:03;;;;;;;26.47;24.97;;;30.10;56.40;;;;;;5075065;28;20442;-64
2021/09/06 11:14:37;;;;;;;30.60;28.90;;;29.90;51.60;;;;;;5075261;28;20439;-65
2021/09/06 11:17:20;;;;;;;29.87;28.27;;;29.60;52.80;;;;;;5075218;28;20802;-62
2021/09/06 11:19:48;;;;;;;29.87;28.03;;;29.50;52.30;;;;;;5075108;28;20467;-63
2021/09/06 11:22:17;;;;;;;28.27;26.30;;;29.50;53.90;;;;;;5074791;28;20840;-62
2021/09/06 11:24:45;;;;;;;28.90;27.10;;;29.70;53.70;;;;;;5075140;28;20438;-63
2021/09/06 11:27:27;;;;;;;29.13;27.53;;;29.30;50.60;;;;;;5074867;28;20924;-62
2021/09/06 11:29:54;;;;;;;29.47;27.67;;;29.20;49.40;;;;;;5074878;28;20986;-62
2021/09/06 11:32:22;;;;;;;29.60;27.90;;;29.90;48.60;;;;;;5074515;28;20439;-64
2021/09/06 11:34:50;;;;;;;29.90;28.10;;;30.90;48.00;;;;;;5074771;28;20504;-63
2021/09/06 11:37:18;;;;;;;30.13;28.33;;;32.10;46.90;;;;;;5074739;28;20442;-63
2021/09/06 11:39:45;;;;;;;30.73;28.80;;;32.40;45.30;;;;;;5074626;28;20470;-63
2021/09/06 11:42:12;;;;;;;28.90;27.30;;;33.20;44.10;;;;;;5074412;28;20481;-62
2021/09/06 11:44:39;;;;;;;29.27;27.53;;;33.40;43.10;;;;;;5074569;28;20924;-63
2021/09/06 11:47:06;;;;;;;30.83;29.00;;;33.20;42.00;;;;;;5074446;28;20826;-63
2021/09/06 11:49:34;;;;;;;29.60;28.00;;;33.70;40.20;;;;;;5074374;28;20458;-62
2021/09/06 11:52:11;;;;;;;30.03;28.50;;;34.90;39.80;;;;;;5074143;28;20441;-62
2021/09/06 11:54:42;;;;;;;31.17;29.55;;;37.00;37.40;;;;;;5074453;28;20286;-65
2021/09/06 11:57:08;;;;;;;29.27;27.77;;;38.30;34.90;;;;;;5074328;28;20201;-62
2021/09/06 11:59:35;;;;;;;29.38;27.88;;;39.40;32.30;;;;;;5074193;28;20225;-62
2021/09/06 12:02:11;;;;;;;28.20;26.80;;;40.40;30.70;;;;;;5073931;28;20712;-64
2021/09/06 12:04:39;;;;;;;30.38;28.73;;;41.00;29.20;;;;;;5073560;28;20219;-65
2021/09/06 12:07:16;;;;;;;29.98;28.55;;;41.60;28.40;;;;;;5074344;28;20786;-65
2021/09/06 12:09:42;;;;;;;28.40;27.10;;;42.70;27.80;;;;;;5074110;28;20247;-64
2021/09/06 12:12:21;;;;;;;28.15;26.85;;;44.60;25.40;;;;;;5073779;28;20224;-64
2021/09/06 12:14:50;;;;;;;28.85;27.35;;;44.70;24.40;;;;;;5074017;28;20219;-65
2021/09/06 12:17:17;;;;;;;29.60;28.13;;;44.00;24.30;;;;;;5073942;28;20224;-66
2021/09/06 12:19:48;;;;;;;27.85;26.55;;;42.80;24.50;;;;;;5073951;28;20740;-63
2021/09/06 12:22:16;;;;;;;30.55;28.90;;;44.10;24.20;;;;;;5073704;28;20225;-66
2021/09/06 12:24:44;;;;;;;28.92;27.52;;;44.30;23.00;;;;;;5073960;28;20208;-63
2021/09/06 12:27:11;;;;;;;30.30;28.73;;;44.30;22.60;;;;;;5073931;28;20207;-66
2021/09/06 12:29:40;;;;;;;31.00;29.40;;;45.30;22.20;;;;;;5073792;28;20228;-63
2021/09/06 12:32:07;;;;;;;30.08;28.58;;;46.50;22.00;;;;;;5073449;28;20565;-63